Time,TemperatureF,DewpointF,PressureIn,WindDirection,WindDirectionDegrees,WindSpeedMPH,WindSpeedGustMPH,Humidity,HourlyPrecipIn,Conditions,Clouds,dailyrainin,SoftwareType,DateUTC
2013-01-02 00:01:00,42.0,36.3,30.21,North,360,2.3,2.3,80,0.00,RA,,0.00,WeatherDisplay:10.37,2013-01-02 06:01:00,
2013-01-02 00:06:00,42.0,36.6,30.21,North,360,0.0,0.0,81,0.00,RA,,0.00,WeatherDisplay:10.37,2013-01-02 06:06:00,
2013-01-02 00:11:00,41.9,36.5,30.21,North,360,3.5,3.5,81,0.00,RA,,0.00,WeatherDisplay:10.37,2013-01-02 06:11:00,
2013-01-02 00:16:00,41.8,36.4,30.21,North,360,3.5,3.5,81,0.00,CLR,,0.00,WeatherDisplay:10.37,2013-01-02 06:16:00,
2013-01-02 00:21:00,41.7,36.0,30.21,North,360,6.9,6.9,80,0.00,CLR,,0.00,WeatherDisplay:10.37,2013-01-02 06:21:00,
2013-01-02 00:26:00,41.6,35.9,30.21,North,360,0.0,0.2,80,0.00,CLR,,0.00,WeatherDisplay:10.37,2013-01-02 06:26:00,
2013-01-02 00:31:00,41.6,35.9,30.22,North,360,5.8,5.8,80,0.00,CLR,,0.00,WeatherDisplay:10.37,2013-01-02 06:31:00,
2013-01-02 00:36:00,41.5,36.1,30.22,North,360,0.0,0.0,81,0.00,CLR,,0.00,WeatherDisplay:10.37,2013-01-02 06:36:00,
2013-01-02 00:41:00,41.4,36.0,30.22,North,11,5.8,5.8,81,0.00,CLR,,0.00,WeatherDisplay:10.37,2013-01-02 06:41:00,
2013-01-02 00:46:00,41.3,35.9,30.21,North,360,2.3,2.3,81,0.00,CLR,,0.00,WeatherDisplay:10.37,2013-01-02 06:46:00,
2013-01-02 00:51:00,41.2,35.8,30.21,North,360,0.0,0.0,81,0.00,CLR,,0.00,WeatherDisplay:10.37,2013-01-02 06:51:00,
2013-01-02 00:56:00,41.1,35.4,30.21,North,360,3.5,3.5,80,0.00,CLR,,0.00,WeatherDisplay:10.37,2013-01-02 06:56:00,
2013-01-02 01:01:00,41.0,35.3,30.21,North,360,4.6,4.6,80,0.00,CLR,,0.00,WeatherDisplay:10.37,2013-01-02 07:01:00,
2013-01-02 01:06:00,40.9,35.2,30.20,North,360,4.6,4.6,80,0.00,CLR,,0.00,WeatherDisplay:10.37,2013-01-02 07:06:00,
2013-01-02 01:11:00,40.7,35.0,30.21,NNW,345,2.3,3.8,80,0.00,CLR,,0.00,WeatherDisplay:10.37,2013-01-02 07:11:00,
2013-01-02 01:16:00,40.6,34.6,30.21,North,355,2.3,2.3,79,0.00,CLR,,0.00,WeatherDisplay:10.37,2013-01-02 07:16:00,
2013-01-02 01:21:00,40.5,34.5,30.21,North,5,3.5,3.5,79,0.00,CLR,,0.00,WeatherDisplay:10.37,2013-01-02 07:21:00,
2013-01-02 01:26:00,40.5,34.2,30.22,North,360,6.9,6.9,78,0.00,CLR,,0.00,WeatherDisplay:10.37,2013-01-02 07:26:00,
2013-01-02 01:31:00,40.4,34.1,30.22,North,360,9.2,9.2,78,0.00,CLR,,0.00,WeatherDisplay:10.37,2013-01-02 07:31:00,
2013-01-02 01:36:00,40.3,34.0,30.22,North,360,6.9,6.9,78,0.00,CLR,,0.00,WeatherDisplay:10.37,2013-01-02 07:36:00,
2013-01-02 01:41:00,40.2,33.9,30.22,North,360,4.6,4.6,78,0.00,CLR,,0.00,WeatherDisplay:10.37,2013-01-02 07:41:00,
2013-01-02 01:46:00,40.1,33.8,30.22,North,360,3.5,3.5,78,0.00,CLR,,0.00,WeatherDisplay:10.37,2013-01-02 07:46:00,
2013-01-02 01:51:00,40.0,33.7,30.22,North,355,5.8,5.8,78,0.00,CLR,,0.00,WeatherDisplay:10.37,2013-01-02 07:51:00,
2013-01-02 01:56:00,39.9,33.6,30.22,North,5,3.5,3.5,78,0.00,CLR,,0.00,WeatherDisplay:10.37,2013-01-02 07:56:00,
2013-01-02 02:01:00,39.8,33.5,30.23,North,360,13.8,13.8,78,0.00,CLR,,0.00,WeatherDisplay:10.37,2013-01-02 08:01:00,
2013-01-02 02:06:00,39.7,33.1,30.22,North,360,10.4,10.4,77,0.00,CLR,,0.00,WeatherDisplay:10.37,2013-01-02 08:06:00,
2013-01-02 02:11:00,39.6,33.0,30.22,North,360,10.4,10.4,77,0.00,CLR,,0.00,WeatherDisplay:10.37,2013-01-02 08:11:00,
2013-01-02 02:16:00,39.5,32.9,30.22,North,360,5.8,5.8,77,0.00,CLR,,0.00,WeatherDisplay:10.37,2013-01-02 08:16:00,
2013-01-02 02:21:00,39.4,32.8,30.23,North,360,6.9,6.9,77,0.00,CLR,,0.00,WeatherDisplay:10.37,2013-01-02 08:21:00,
2013-01-02 02:26:00,39.3,32.7,30.23,North,355,12.7,12.7,77,0.00,CLR,,0.00,WeatherDisplay:10.37,2013-01-02 08:26:00,
2013-01-02 02:31:00,39.3,32.7,30.23,North,360,6.9,6.9,77,0.00,CLR,,0.00,WeatherDisplay:10.37,2013-01-02 08:31:00,
2013-01-02 02:36:00,39.2,32.6,30.23,North,360,10.4,10.4,77,0.00,CLR,,0.00,WeatherDisplay:10.37,2013-01-02 08:36:00,
2013-01-02 02:41:00,39.1,32.5,30.23,North,360,10.4,10.4,77,0.00,CLR,,0.00,WeatherDisplay:10.37,2013-01-02 08:41:00,
2013-01-02 02:46:00,39.1,32.5,30.23,North,10,6.9,6.9,77,0.00,CLR,,0.00,WeatherDisplay:10.37,2013-01-02 08:46:00,
2013-01-02 02:51:00,39.0,32.4,30.23,North,9,12.7,12.7,77,0.00,CLR,,0.00,WeatherDisplay:10.37,2013-01-02 08:51:00,
2013-01-02 02:56:00,38.9,32.3,30.23,North,355,11.5,11.5,77,0.00,CLR,,0.00,WeatherDisplay:10.37,2013-01-02 08:56:00,
2013-01-02 03:01:00,38.8,32.2,30.23,North,360,4.6,4.6,77,0.00,CLR,,0.00,WeatherDisplay:10.37,2013-01-02 09:01:00,
2013-01-02 03:06:00,38.7,32.1,30.23,North,11,6.9,6.9,77,0.00,CLR,,0.00,WeatherDisplay:10.37,2013-01-02 09:06:00,
2013-01-02 03:11:00,38.7,32.1,30.23,North,5,2.3,2.3,77,0.00,CLR,,0.00,WeatherDisplay:10.37,2013-01-02 09:11:00,
2013-01-02 03:16:00,38.6,32.0,30.23,North,355,2.3,2.3,77,0.00,CLR,,0.00,WeatherDisplay:10.37,2013-01-02 09:16:00,
2013-01-02 03:21:00,38.6,32.3,30.23,North,5,6.9,6.9,78,0.00,CLR,,0.00,WeatherDisplay:10.37,2013-01-02 09:21:00,
2013-01-02 03:26:00,38.5,31.9,30.24,North,360,13.8,13.8,77,0.00,CLR,,0.00,WeatherDisplay:10.37,2013-01-02 09:26:00,
2013-01-02 03:31:00,38.4,31.8,30.23,North,360,9.2,9.2,77,0.00,CLR,,0.00,WeatherDisplay:10.37,2013-01-02 09:31:00,
2013-01-02 03:36:00,38.4,31.8,30.23,North,360,6.0,6.0,77,0.00,CLR,,0.00,WeatherDisplay:10.37,2013-01-02 09:36:00,
2013-01-02 03:41:00,38.3,31.7,30.23,North,360,11.5,11.5,77,0.00,CLR,,0.00,WeatherDisplay:10.37,2013-01-02 09:41:00,
2013-01-02 03:46:00,38.3,31.7,30.23,North,10,10.4,10.4,77,0.00,CLR,,0.00,WeatherDisplay:10.37,2013-01-02 09:46:00,
2013-01-02 03:51:00,38.3,31.7,30.24,North,355,9.2,9.2,77,0.00,CLR,,0.00,WeatherDisplay:10.37,2013-01-02 09:51:00,
2013-01-02 03:56:00,38.2,31.6,30.23,North,360,0.0,0.0,77,0.00,CLR,,0.00,WeatherDisplay:10.37,2013-01-02 09:56:00,
2013-01-02 04:01:00,38.2,31.9,30.24,North,360,4.6,4.6,78,0.00,CLR,,0.00,WeatherDisplay:10.37,2013-01-02 10:01:00,
2013-01-02 04:06:00,38.1,31.8,30.24,North,360,0.0,0.0,78,0.00,CLR,,0.00,WeatherDisplay:10.37,2013-01-02 10:06:00,
2013-01-02 04:11:00,38.0,31.4,30.24,North,360,6.9,6.9,77,0.00,CLR,,0.00,WeatherDisplay:10.37,2013-01-02 10:11:00,
2013-01-02 04:16:00,38.0,31.4,30.24,North,5,6.9,6.9,77,0.00,CLR,,0.00,WeatherDisplay:10.37,2013-01-02 10:16:00,
2013-01-02 04:21:00,37.9,31.3,30.24,North,360,5.8,5.8,77,0.00,CLR,,0.00,WeatherDisplay:10.37,2013-01-02 10:21:00,
2013-01-02 04:26:00,37.9,31.3,30.24,NNW,336,5.8,5.8,77,0.00,CLR,,0.00,WeatherDisplay:10.37,2013-01-02 10:26:00,
2013-01-02 04:31:00,37.8,31.2,30.24,North,360,3.5,3.5,77,0.00,CLR,,0.00,WeatherDisplay:10.37,2013-01-02 10:31:00,
2013-01-02 04:36:00,37.8,31.2,30.24,North,350,11.5,11.5,77,0.00,CLR,,0.00,WeatherDisplay:10.37,2013-01-02 10:36:00,
2013-01-02 04:41:00,37.7,31.1,30.24,North,360,6.9,6.9,77,0.00,CLR,,0.00,WeatherDisplay:10.37,2013-01-02 10:41:00,
2013-01-02 04:46:00,37.7,31.1,30.24,North,360,5.8,5.8,77,0.00,CLR,,0.00,WeatherDisplay:10.37,2013-01-02 10:46:00,
2013-01-02 04:51:00,37.6,31.0,30.24,North,355,10.4,10.4,77,0.00,CLR,,0.00,WeatherDisplay:10.37,2013-01-02 10:51:00,
2013-01-02 04:56:00,37.6,31.0,30.24,North,360,9.2,9.2,77,0.00,CLR,,0.00,WeatherDisplay:10.37,2013-01-02 10:56:00,
2013-01-02 05:01:00,37.5,30.9,30.24,North,360,11.5,11.5,77,0.00,CLR,,0.00,WeatherDisplay:10.37,2013-01-02 11:01:00,
2013-01-02 05:06:00,37.5,30.6,30.24,North,360,6.9,6.9,76,0.00,CLR,,0.00,WeatherDisplay:10.37,2013-01-02 11:06:00,
2013-01-02 05:11:00,37.5,30.9,30.24,North,9,10.4,10.4,77,0.00,CLR,,0.00,WeatherDisplay:10.37,2013-01-02 11:11:00,
2013-01-02 05:16:00,37.5,30.6,30.24,North,360,9.2,9.2,76,0.00,CLR,,0.00,WeatherDisplay:10.37,2013-01-02 11:16:00,
2013-01-02 05:21:00,37.4,30.5,30.24,North,5,6.9,6.9,76,0.00,CLR,,0.00,WeatherDisplay:10.37,2013-01-02 11:21:00,
2013-01-02 05:26:00,37.4,30.5,30.24,North,9,5.8,5.8,76,0.00,CLR,,0.00,WeatherDisplay:10.37,2013-01-02 11:26:00,
2013-01-02 05:31:00,37.4,30.5,30.23,North,360,8.1,8.1,76,0.00,CLR,,0.00,WeatherDisplay:10.37,2013-01-02 11:31:00,
2013-01-02 05:36:00,37.3,30.4,30.24,North,360,5.8,5.8,76,0.00,CLR,,0.00,WeatherDisplay:10.37,2013-01-02 11:36:00,
2013-01-02 05:41:00,37.3,30.4,30.24,North,360,6.9,6.9,76,0.00,CLR,,0.00,WeatherDisplay:10.37,2013-01-02 11:41:00,
2013-01-02 05:46:00,37.3,30.4,30.24,North,360,13.8,13.8,76,0.00,CLR,,0.00,WeatherDisplay:10.37,2013-01-02 11:46:00,
2013-01-02 05:51:00,37.2,30.3,30.24,North,5,12.7,12.7,76,0.00,CLR,,0.00,WeatherDisplay:10.37,2013-01-02 11:51:00,
2013-01-02 05:56:00,37.2,30.0,30.25,North,355,9.0,9.0,75,0.00,CLR,,0.00,WeatherDisplay:10.37,2013-01-02 11:56:00,
2013-01-02 06:01:00,37.2,30.0,30.25,North,355,9.2,9.2,75,0.00,CLR,,0.00,WeatherDisplay:10.37,2013-01-02 12:01:00,
2013-01-02 06:06:00,37.1,29.6,30.24,North,360,11.5,11.5,74,0.00,CLR,,0.00,WeatherDisplay:10.37,2013-01-02 12:06:00,
2013-01-02 06:11:00,37.1,29.6,30.24,North,350,13.8,13.8,74,0.00,CLR,,0.00,WeatherDisplay:10.37,2013-01-02 12:11:00,
2013-01-02 06:16:00,37.0,29.1,30.24,North,5,12.7,12.7,73,0.00,CLR,,0.00,WeatherDisplay:10.37,2013-01-02 12:16:00,
2013-01-02 06:21:00,37.0,29.1,30.24,North,355,5.8,5.8,73,0.00,CLR,,0.00,WeatherDisplay:10.37,2013-01-02 12:21:00,
2013-01-02 06:26:00,37.0,29.5,30.24,North,355,6.9,6.9,74,0.00,CLR,,0.00,WeatherDisplay:10.37,2013-01-02 12:26:00,
2013-01-02 06:31:00,37.0,29.5,30.24,North,360,6.0,6.0,74,0.00,CLR,,0.00,WeatherDisplay:10.37,2013-01-02 12:31:00,
2013-01-02 06:36:00,36.9,29.4,30.25,North,5,8.1,8.1,74,0.00,CLR,,0.00,WeatherDisplay:10.37,2013-01-02 12:36:00,
2013-01-02 06:41:00,36.9,29.4,30.25,North,360,9.2,9.2,74,0.00,CLR,,0.00,WeatherDisplay:10.37,2013-01-02 12:41:00,
2013-01-02 06:46:00,36.9,29.4,30.25,North,360,8.1,8.1,74,0.00,CLR,,0.00,WeatherDisplay:10.37,2013-01-02 12:46:00,
2013-01-02 06:51:00,36.9,29.4,30.25,North,360,7.0,7.0,74,0.00,CLR,,0.00,WeatherDisplay:10.37,2013-01-02 12:51:00,
2013-01-02 06:56:00,36.9,29.4,30.25,NNW,344,3.5,3.5,74,0.00,CLR,,0.00,WeatherDisplay:10.37,2013-01-02 12:56:00,
2013-01-02 07:01:00,36.9,29.4,30.26,North,355,6.9,6.9,74,0.00,CLR,,0.00,WeatherDisplay:10.37,2013-01-02 13:01:00,
2013-01-02 07:06:00,36.9,29.4,30.26,North,355,5.8,5.8,74,0.00,CLR,,0.00,WeatherDisplay:10.37,2013-01-02 13:06:00,
2013-01-02 07:11:00,36.9,29.7,30.26,North,360,9.2,9.2,75,0.00,CLR,,0.00,WeatherDisplay:10.37,2013-01-02 13:11:00,
2013-01-02 07:16:00,36.9,29.7,30.26,North,360,0.0,0.0,75,0.00,CLR,,0.00,WeatherDisplay:10.37,2013-01-02 13:16:00,
2013-01-02 07:21:00,36.9,29.7,30.27,North,5,15.0,15.0,75,0.00,CLR,,0.00,WeatherDisplay:10.37,2013-01-02 13:21:00,
2013-01-02 07:26:00,36.9,29.7,30.27,North,360,6.9,6.9,75,0.00,CLR,,0.00,WeatherDisplay:10.37,2013-01-02 13:26:00,
2013-01-02 07:31:00,36.9,29.7,30.27,North,360,5.8,5.8,75,0.00,CLR,,0.00,WeatherDisplay:10.37,2013-01-02 13:31:00,
2013-01-02 07:36:00,36.8,29.6,30.27,North,5,6.9,6.9,75,0.00,CLR,,0.00,WeatherDisplay:10.37,2013-01-02 13:36:00,
2013-01-02 07:41:00,36.8,29.6,30.27,North,5,11.5,11.5,75,0.00,CLR,,0.00,WeatherDisplay:10.37,2013-01-02 13:41:00,
2013-01-02 07:46:00,36.9,29.7,30.27,North,5,0.0,0.0,75,0.00,CLR,,0.00,WeatherDisplay:10.37,2013-01-02 13:46:00,
2013-01-02 07:51:00,36.9,30.0,30.27,North,5,3.5,3.5,76,0.00,CLR,,0.00,WeatherDisplay:10.37,2013-01-02 13:51:00,
2013-01-02 07:56:00,36.8,29.6,30.27,North,360,6.9,6.9,75,0.00,CLR,,0.00,WeatherDisplay:10.37,2013-01-02 13:56:00,
2013-01-02 08:01:00,36.8,29.6,30.27,NNW,342,9.2,9.2,75,0.00,CLR,,0.00,WeatherDisplay:10.37,2013-01-02 14:01:00,
2013-01-02 08:06:00,36.8,29.6,30.28,North,355,10.4,10.4,75,0.00,CLR,,0.00,WeatherDisplay:10.37,2013-01-02 14:06:00,
2013-01-02 08:11:00,36.8,29.6,30.28,North,360,5.8,5.8,75,0.00,CLR,,0.00,WeatherDisplay:10.37,2013-01-02 14:11:00,
2013-01-02 08:16:00,36.8,29.6,30.28,North,5,4.6,4.6,75,0.00,CLR,,0.00,WeatherDisplay:10.37,2013-01-02 14:16:00,
2013-01-02 08:21:00,36.8,29.6,30.28,North,5,5.8,5.8,75,0.00,CLR,,0.00,WeatherDisplay:10.37,2013-01-02 14:21:00,
2013-01-02 08:26:00,36.9,29.4,30.28,North,5,6.9,6.9,74,0.00,CLR,,0.00,WeatherDisplay:10.37,2013-01-02 14:26:00,
2013-01-02 08:31:00,36.9,29.4,30.28,North,360,4.6,4.6,74,0.00,CLR,,0.00,WeatherDisplay:10.37,2013-01-02 14:31:00,
2013-01-02 08:36:00,37.0,29.5,30.28,North,355,11.5,11.5,74,0.00,CLR,,0.00,WeatherDisplay:10.37,2013-01-02 14:36:00,
2013-01-02 08:41:00,37.0,29.1,30.28,North,360,12.7,12.7,73,0.00,CLR,,0.00,WeatherDisplay:10.37,2013-01-02 14:41:00,
2013-01-02 08:46:00,37.0,29.1,30.28,North,355,11.5,11.5,73,0.00,CLR,,0.00,WeatherDisplay:10.37,2013-01-02 14:46:00,
2013-01-02 08:51:00,37.1,29.2,30.28,NNW,348,11.5,11.5,73,0.00,CLR,,0.00,WeatherDisplay:10.37,2013-01-02 14:51:00,
2013-01-02 08:56:00,37.1,29.2,30.29,North,355,4.6,4.6,73,0.00,CLR,,0.00,WeatherDisplay:10.37,2013-01-02 14:56:00,
2013-01-02 09:01:00,37.2,29.3,30.29,NNW,346,11.5,11.5,73,0.00,CLR,,0.00,WeatherDisplay:10.37,2013-01-02 15:01:00,
2013-01-02 09:06:00,37.3,29.1,30.29,North,5,8.1,8.1,72,0.00,CLR,,0.00,WeatherDisplay:10.37,2013-01-02 15:06:00,
2013-01-02 09:11:00,37.3,29.1,30.29,North,360,9.2,9.2,72,0.00,CLR,,0.00,WeatherDisplay:10.37,2013-01-02 15:11:00,
2013-01-02 09:16:00,37.4,29.2,30.30,North,360,8.1,8.1,72,0.00,CLR,,0.00,WeatherDisplay:10.37,2013-01-02 15:16:00,
2013-01-02 09:21:00,37.5,29.3,30.30,North,10,9.2,9.2,72,0.00,CLR,,0.00,WeatherDisplay:10.37,2013-01-02 15:21:00,
2013-01-02 09:26:00,37.5,28.9,30.30,North,360,9.2,9.2,71,0.00,CLR,,0.00,WeatherDisplay:10.37,2013-01-02 15:26:00,
2013-01-02 09:31:00,37.7,29.1,30.30,North,5,12.7,12.7,71,0.00,CLR,,0.00,WeatherDisplay:10.37,2013-01-02 15:31:00,
2013-01-02 09:36:00,37.7,29.1,30.30,North,5,11.5,11.5,71,0.00,CLR,,0.00,WeatherDisplay:10.37,2013-01-02 15:36:00,
2013-01-02 09:41:00,37.8,29.2,30.30,North,360,9.2,9.2,71,0.00,CLR,,0.00,WeatherDisplay:10.37,2013-01-02 15:41:00,
2013-01-02 09:46:00,37.9,29.3,30.31,North,5,3.5,3.5,71,0.00,CLR,,0.00,WeatherDisplay:10.37,2013-01-02 15:46:00,
2013-01-02 09:51:00,38.1,29.5,30.31,North,5,4.6,4.6,71,0.00,CLR,,0.00,WeatherDisplay:10.37,2013-01-02 15:51:00,
2013-01-02 09:56:00,38.2,29.3,30.31,North,5,9.2,9.2,70,0.00,CLR,,0.00,WeatherDisplay:10.37,2013-01-02 15:56:00,
2013-01-02 10:01:00,38.3,29.0,30.31,North,9,6.9,6.9,69,0.00,CLR,,0.00,WeatherDisplay:10.37,2013-01-02 16:01:00,
2013-01-02 10:06:00,38.4,29.1,30.31,North,5,9.2,9.2,69,0.00,CLR,,0.00,WeatherDisplay:10.37,2013-01-02 16:06:00,
2013-01-02 10:11:00,38.5,29.6,30.31,North,360,5.8,5.8,70,0.00,CLR,,0.00,WeatherDisplay:10.37,2013-01-02 16:11:00,
2013-01-02 10:16:00,38.7,29.4,30.31,North,5,9.2,9.2,69,0.00,CLR,,0.00,WeatherDisplay:10.37,2013-01-02 16:16:00,
2013-01-02 10:21:00,38.8,29.5,30.31,North,360,6.9,6.9,69,0.00,CLR,,0.00,WeatherDisplay:10.37,2013-01-02 16:21:00,
2013-01-02 10:26:00,38.8,29.1,30.30,North,360,5.8,5.8,68,0.00,CLR,,0.00,WeatherDisplay:10.37,2013-01-02 16:26:00,
2013-01-02 10:31:00,39.0,29.7,30.30,North,5,2.3,2.3,69,0.00,CLR,,0.00,WeatherDisplay:10.37,2013-01-02 16:31:00,
2013-01-02 10:36:00,39.2,29.5,30.30,North,360,0.0,0.0,68,0.00,CLR,,0.00,WeatherDisplay:10.37,2013-01-02 16:36:00,
2013-01-02 10:41:00,39.3,29.6,30.30,North,360,4.6,4.6,68,0.00,CLR,,0.00,WeatherDisplay:10.37,2013-01-02 16:41:00,
2013-01-02 10:46:00,39.4,29.3,30.30,North,9,6.9,6.9,67,0.00,CLR,,0.00,WeatherDisplay:10.37,2013-01-02 16:46:00,
2013-01-02 10:51:00,39.4,29.3,30.30,North,10,3.5,3.5,67,0.00,CLR,,0.00,WeatherDisplay:10.37,2013-01-02 16:51:00,
2013-01-02 10:56:00,39.5,29.4,30.30,NNE,13,4.6,4.6,67,0.00,CLR,,0.00,WeatherDisplay:10.37,2013-01-02 16:56:00,
2013-01-02 11:01:00,39.5,29.4,30.29,NNE,13,6.9,6.9,67,0.00,CLR,,0.00,WeatherDisplay:10.37,2013-01-02 17:01:00,
2013-01-02 11:06:00,39.6,29.5,30.29,North,10,3.5,3.5,67,0.00,CLR,,0.00,WeatherDisplay:10.37,2013-01-02 17:06:00,
2013-01-02 11:11:00,39.7,29.6,30.30,North,11,3.5,3.5,67,0.00,CLR,,0.00,WeatherDisplay:10.37,2013-01-02 17:11:00,
2013-01-02 11:16:00,39.7,29.6,30.30,North,9,4.6,4.6,67,0.00,CLR,,0.00,WeatherDisplay:10.37,2013-01-02 17:16:00,
2013-01-02 11:21:00,39.9,29.8,30.30,North,360,10.4,10.4,67,0.00,CLR,,0.00,WeatherDisplay:10.37,2013-01-02 17:21:00,
2013-01-02 11:26:00,40.0,29.9,30.30,North,360,5.8,5.8,67,0.00,CLR,,0.00,WeatherDisplay:10.37,2013-01-02 17:26:00,
2013-01-02 11:31:00,40.1,29.6,30.30,North,360,5.8,5.9,66,0.00,CLR,,0.00,WeatherDisplay:10.37,2013-01-02 17:31:00,
2013-01-02 11:36:00,40.1,29.6,30.30,North,360,9.2,9.2,66,0.00,CLR,,0.00,WeatherDisplay:10.37,2013-01-02 17:36:00,
2013-01-02 11:41:00,40.1,29.6,30.30,North,360,10.4,10.4,66,0.00,CLR,,0.00,WeatherDisplay:10.37,2013-01-02 17:41:00,
2013-01-02 11:46:00,40.1,29.6,30.30,North,360,1.2,0.0,66,0.00,CLR,,0.00,WeatherDisplay:10.37,2013-01-02 17:46:00,
2013-01-02 11:51:00,40.1,29.6,30.30,North,360,5.8,5.8,66,0.00,CLR,,0.00,WeatherDisplay:10.37,2013-01-02 17:51:00,
2013-01-02 11:56:00,40.1,29.6,30.29,North,360,4.6,4.6,66,0.00,CLR,,0.00,WeatherDisplay:10.37,2013-01-02 17:56:00,
2013-01-02 12:01:00,40.1,29.6,30.29,North,360,3.5,3.5,66,0.00,CLR,,0.00,WeatherDisplay:10.37,2013-01-02 18:01:00,
2013-01-02 12:06:00,40.1,29.6,30.29,North,360,4.6,4.6,66,0.00,CLR,,0.00,WeatherDisplay:10.37,2013-01-02 18:06:00,
2013-01-02 12:11:00,40.2,29.4,30.29,North,9,4.6,4.6,65,0.00,CLR,,0.00,WeatherDisplay:10.37,2013-01-02 18:11:00,
2013-01-02 12:16:00,40.4,29.6,30.28,North,11,0.0,0.0,65,0.00,CLR,,0.00,WeatherDisplay:10.37,2013-01-02 18:16:00,
2013-01-02 12:21:00,40.5,30.0,30.28,North,360,4.6,4.6,66,0.00,CLR,,0.00,WeatherDisplay:10.37,2013-01-02 18:21:00,
2013-01-02 12:26:00,40.6,30.1,30.28,North,5,0.0,0.0,66,0.00,CLR,,0.00,WeatherDisplay:10.37,2013-01-02 18:26:00,
2013-01-02 12:31:00,40.7,29.8,30.27,North,5,3.5,3.5,65,0.00,CLR,,0.00,WeatherDisplay:10.37,2013-01-02 18:31:00,
2013-01-02 12:36:00,40.9,30.4,30.27,North,360,0.0,0.0,66,0.00,CLR,,0.00,WeatherDisplay:10.37,2013-01-02 18:36:00,
2013-01-02 12:41:00,41.0,30.1,30.27,North,360,1.2,1.2,65,0.00,CLR,,0.00,WeatherDisplay:10.37,2013-01-02 18:41:00,
2013-01-02 12:46:00,41.2,29.5,30.25,North,360,4.6,4.6,63,0.00,CLR,,0.00,WeatherDisplay:10.37,2013-01-02 18:46:00,
2013-01-02 12:51:00,41.3,29.6,30.26,North,355,9.2,9.2,63,0.00,CLR,,0.00,WeatherDisplay:10.37,2013-01-02 18:51:00,
2013-01-02 12:56:00,41.3,29.6,30.26,North,355,10.4,10.4,63,0.00,CLR,,0.00,WeatherDisplay:10.37,2013-01-02 18:56:00,
2013-01-02 13:01:00,41.4,29.7,30.26,North,360,9.2,9.2,63,0.00,CLR,,0.00,WeatherDisplay:10.37,2013-01-02 19:01:00,
2013-01-02 13:06:00,41.5,29.8,30.25,North,5,2.3,0.0,63,0.00,CLR,,0.00,WeatherDisplay:10.37,2013-01-02 19:06:00,
2013-01-02 13:11:00,41.6,29.9,30.25,North,5,1.2,0.0,63,0.00,CLR,,0.00,WeatherDisplay:10.37,2013-01-02 19:11:00,
2013-01-02 13:16:00,41.7,30.0,30.25,North,5,0.0,0.0,63,0.00,CLR,,0.00,WeatherDisplay:10.37,2013-01-02 19:16:00,
2013-01-02 13:21:00,41.9,30.2,30.25,North,5,6.9,6.9,63,0.00,CLR,,0.00,WeatherDisplay:10.37,2013-01-02 19:21:00,
2013-01-02 13:26:00,42.0,29.9,30.25,North,5,10.4,10.4,62,0.00,CLR,,0.00,WeatherDisplay:10.37,2013-01-02 19:26:00,
2013-01-02 13:31:00,42.1,30.0,30.24,North,360,6.9,6.9,62,0.00,CLR,,0.00,WeatherDisplay:10.37,2013-01-02 19:31:00,
2013-01-02 13:36:00,42.2,30.1,30.24,North,5,4.6,4.6,62,0.00,CLR,,0.00,WeatherDisplay:10.37,2013-01-02 19:36:00,
2013-01-02 13:41:00,42.2,30.1,30.24,North,5,11.5,11.5,62,0.00,CLR,,0.00,WeatherDisplay:10.37,2013-01-02 19:41:00,
2013-01-02 13:46:00,42.3,30.2,30.24,North,360,6.9,6.9,62,0.00,CLR,,0.00,WeatherDisplay:10.37,2013-01-02 19:46:00,
2013-01-02 13:51:00,42.3,30.2,30.24,North,5,2.3,2.3,62,0.00,CLR,,0.00,WeatherDisplay:10.37,2013-01-02 19:51:00,
2013-01-02 13:56:00,42.5,30.4,30.23,North,5,3.5,3.5,62,0.00,CLR,,0.00,WeatherDisplay:10.37,2013-01-02 19:56:00,
2013-01-02 14:01:00,42.6,30.9,30.23,North,5,3.5,3.5,63,0.00,CLR,,0.00,WeatherDisplay:10.37,2013-01-02 20:01:00,
2013-01-02 14:06:00,42.7,30.2,30.22,North,360,2.3,2.3,61,0.00,CLR,,0.00,WeatherDisplay:10.37,2013-01-02 20:06:00,
2013-01-02 14:11:00,42.8,30.7,30.23,North,5,2.3,2.3,62,0.00,CLR,,0.00,WeatherDisplay:10.37,2013-01-02 20:11:00,
2013-01-02 14:16:00,42.8,30.3,30.23,North,5,6.9,6.9,61,0.00,CLR,,0.00,WeatherDisplay:10.37,2013-01-02 20:16:00,
2013-01-02 14:21:00,43.0,30.5,30.22,North,5,5.8,5.8,61,0.00,CLR,,0.00,WeatherDisplay:10.37,2013-01-02 20:21:00,
2013-01-02 14:26:00,43.1,30.6,30.22,North,5,9.2,9.2,61,0.00,CLR,,0.00,WeatherDisplay:10.37,2013-01-02 20:26:00,
2013-01-02 14:31:00,43.1,29.3,30.22,North,360,8.1,8.1,58,0.00,CLR,,0.00,WeatherDisplay:10.37,2013-01-02 20:31:00,
2013-01-02 14:36:00,43.3,29.9,30.23,North,360,3.5,3.5,59,0.00,CLR,,0.00,WeatherDisplay:10.37,2013-01-02 20:36:00,
2013-01-02 14:41:00,43.4,30.0,30.23,North,360,4.0,4.0,59,0.00,CLR,,0.00,WeatherDisplay:10.37,2013-01-02 20:41:00,
2013-01-02 14:46:00,43.5,30.1,30.22,North,360,9.2,9.2,59,0.00,CLR,,0.00,WeatherDisplay:10.37,2013-01-02 20:46:00,
2013-01-02 14:51:00,43.6,30.2,30.23,North,360,3.5,3.5,59,0.00,CLR,,0.00,WeatherDisplay:10.37,2013-01-02 20:51:00,
2013-01-02 14:56:00,43.7,30.3,30.23,North,360,6.9,6.9,59,0.00,CLR,,0.00,WeatherDisplay:10.37,2013-01-02 20:56:00,
2013-01-02 15:01:00,43.7,30.3,30.23,North,360,0.0,0.0,59,0.00,CLR,,0.00,WeatherDisplay:10.37,2013-01-02 21:01:00,
2013-01-02 15:06:00,43.8,30.8,30.23,North,360,2.3,2.3,60,0.00,CLR,,0.00,WeatherDisplay:10.37,2013-01-02 21:06:00,
2013-01-02 15:11:00,43.8,30.8,30.23,North,355,6.9,6.9,60,0.00,CLR,,0.00,WeatherDisplay:10.37,2013-01-02 21:11:00,
2013-01-02 15:16:00,43.8,30.4,30.23,North,355,0.0,0.0,59,0.00,CLR,,0.00,WeatherDisplay:10.37,2013-01-02 21:16:00,
2013-01-02 15:21:00,43.8,30.4,30.22,North,360,0.0,0.0,59,0.00,CLR,,0.00,WeatherDisplay:10.37,2013-01-02 21:21:00,
2013-01-02 15:26:00,43.9,30.5,30.24,North,360,6.9,6.9,59,0.00,CLR,,0.00,WeatherDisplay:10.37,2013-01-02 21:26:00,
2013-01-02 15:31:00,43.9,30.1,30.24,North,360,2.3,2.3,58,0.00,CLR,,0.00,WeatherDisplay:10.37,2013-01-02 21:31:00,
2013-01-02 15:36:00,43.9,30.1,30.23,North,360,3.5,3.5,58,0.00,CLR,,0.00,WeatherDisplay:10.37,2013-01-02 21:36:00,
2013-01-02 15:41:00,44.0,30.2,30.22,North,360,0.0,0.0,58,0.00,CLR,,0.00,WeatherDisplay:10.37,2013-01-02 21:41:00,
2013-01-02 15:46:00,44.2,30.8,30.23,North,360,0.0,0.0,59,0.00,CLR,,0.00,WeatherDisplay:10.37,2013-01-02 21:46:00,
2013-01-02 15:51:00,44.3,30.9,30.23,North,360,2.3,2.3,59,0.00,CLR,,0.00,WeatherDisplay:10.37,2013-01-02 21:51:00,
2013-01-02 15:56:00,44.4,30.5,30.24,North,360,3.5,3.5,58,0.00,CLR,,0.00,WeatherDisplay:10.37,2013-01-02 21:56:00,
2013-01-02 16:01:00,44.4,30.1,30.23,North,360,4.6,4.6,57,0.00,CLR,,0.00,WeatherDisplay:10.37,2013-01-02 22:01:00,
2013-01-02 16:06:00,44.3,29.6,30.24,North,360,4.6,4.6,56,0.00,CLR,,0.00,WeatherDisplay:10.37,2013-01-02 22:06:00,
2013-01-02 16:11:00,44.2,30.3,30.24,North,360,4.6,4.6,58,0.00,CLR,,0.00,WeatherDisplay:10.37,2013-01-02 22:11:00,
2013-01-02 16:16:00,44.1,30.3,30.24,North,360,0.0,0.0,58,0.00,CLR,,0.00,WeatherDisplay:10.37,2013-01-02 22:16:00,
2013-01-02 16:21:00,44.0,30.2,30.24,NNE,15,3.5,3.5,58,0.00,CLR,,0.00,WeatherDisplay:10.37,2013-01-02 22:21:00,
2013-01-02 16:26:00,43.9,30.1,30.23,NNE,12,4.6,4.6,58,0.00,CLR,,0.00,WeatherDisplay:10.37,2013-01-02 22:26:00,
2013-01-02 16:31:00,43.9,30.5,30.23,North,360,3.5,3.5,59,0.00,CLR,,0.00,WeatherDisplay:10.37,2013-01-02 22:31:00,
2013-01-02 16:36:00,43.8,30.4,30.24,North,5,0.0,0.0,59,0.00,CLR,,0.00,WeatherDisplay:10.37,2013-01-02 22:36:00,
2013-01-02 16:41:00,43.8,30.4,30.24,North,5,0.0,0.0,59,0.00,CLR,,0.00,WeatherDisplay:10.37,2013-01-02 22:41:00,
2013-01-02 16:46:00,43.7,30.3,30.24,North,360,0.0,0.0,59,0.00,CLR,,0.00,WeatherDisplay:10.37,2013-01-02 22:46:00,
2013-01-02 16:51:00,43.7,30.7,30.25,North,360,5.8,5.8,60,0.00,CLR,,0.00,WeatherDisplay:10.37,2013-01-02 22:51:00,
2013-01-02 16:56:00,43.7,30.3,30.25,North,5,0.0,0.0,59,0.00,CLR,,0.00,WeatherDisplay:10.37,2013-01-02 22:56:00,
2013-01-02 17:01:00,43.7,30.7,30.25,North,5,0.0,0.0,60,0.00,CLR,,0.00,WeatherDisplay:10.37,2013-01-02 23:01:00,
2013-01-02 17:06:00,43.6,30.6,30.24,North,5,0.0,0.0,60,0.00,CLR,,0.00,WeatherDisplay:10.37,2013-01-02 23:06:00,
2013-01-02 17:11:00,43.6,31.0,30.24,North,5,0.0,0.0,61,0.00,CLR,,0.00,WeatherDisplay:10.37,2013-01-02 23:11:00,
2013-01-02 17:16:00,43.6,31.0,30.23,North,360,1.2,0.0,61,0.00,CLR,,0.00,WeatherDisplay:10.37,2013-01-02 23:16:00,
2013-01-02 17:21:00,43.5,30.9,30.24,North,360,0.0,0.0,61,0.00,CLR,,0.00,WeatherDisplay:10.37,2013-01-02 23:21:00,
2013-01-02 17:26:00,43.4,30.8,30.24,North,5,0.0,0.0,61,0.00,CLR,,0.00,WeatherDisplay:10.37,2013-01-02 23:26:00,
2013-01-02 17:31:00,43.4,31.2,30.24,North,5,0.0,0.0,62,0.00,CLR,,0.00,WeatherDisplay:10.37,2013-01-02 23:31:00,
2013-01-02 17:36:00,43.3,31.1,30.25,North,5,0.0,0.0,62,0.00,CLR,,0.00,WeatherDisplay:10.37,2013-01-02 23:36:00,
2013-01-02 17:41:00,43.3,31.1,30.24,North,360,0.0,0.0,62,0.00,CLR,,0.00,WeatherDisplay:10.37,2013-01-02 23:41:00,
2013-01-02 17:46:00,43.2,31.1,30.24,North,360,0.0,0.0,62,0.00,CLR,,0.00,WeatherDisplay:10.37,2013-01-02 23:46:00,
2013-01-02 17:51:00,43.1,31.0,30.24,North,360,0.0,0.0,62,0.00,CLR,,0.00,WeatherDisplay:10.37,2013-01-02 23:51:00,
2013-01-02 17:56:00,43.1,31.0,30.25,North,5,0.0,0.0,62,0.00,CLR,,0.00,WeatherDisplay:10.37,2013-01-02 23:56:00,
2013-01-02 18:01:00,43.1,31.0,30.25,North,360,0.0,0.0,62,0.00,CLR,,0.00,WeatherDisplay:10.37,2013-01-03 00:01:00,
2013-01-02 18:06:00,43.0,31.3,30.25,North,360,0.0,0.0,63,0.00,CLR,,0.00,WeatherDisplay:10.37,2013-01-03 00:06:00,
2013-01-02 18:11:00,43.0,31.3,30.26,North,5,0.0,0.0,63,0.00,CLR,,0.00,WeatherDisplay:10.37,2013-01-03 00:11:00,
2013-01-02 18:16:00,43.0,31.3,30.25,North,5,0.0,0.0,63,0.00,CLR,,0.00,WeatherDisplay:10.37,2013-01-03 00:16:00,
2013-01-02 18:21:00,43.0,31.6,30.25,North,360,0.0,0.0,64,0.00,CLR,,0.00,WeatherDisplay:10.37,2013-01-03 00:21:00,
2013-01-02 18:26:00,42.9,31.6,30.25,North,5,0.0,0.0,64,0.00,CLR,,0.00,WeatherDisplay:10.37,2013-01-03 00:26:00,
2013-01-02 18:31:00,42.9,31.6,30.26,North,5,0.0,0.0,64,0.00,CLR,,0.00,WeatherDisplay:10.37,2013-01-03 00:31:00,
2013-01-02 18:36:00,42.8,31.8,30.26,North,360,0.0,0.0,65,0.00,CLR,,0.00,WeatherDisplay:10.37,2013-01-03 00:36:00,
2013-01-02 18:41:00,42.8,31.8,30.26,North,5,0.0,0.0,65,0.00,CLR,,0.00,WeatherDisplay:10.37,2013-01-03 00:41:00,
2013-01-02 18:46:00,42.8,31.8,30.26,North,5,0.0,0.0,65,0.00,CLR,,0.00,WeatherDisplay:10.37,2013-01-03 00:46:00,
2013-01-02 18:51:00,42.7,32.1,30.27,North,5,0.0,0.0,66,0.00,CLR,,0.00,WeatherDisplay:10.37,2013-01-03 00:51:00,
2013-01-02 18:56:00,42.7,32.1,30.26,North,5,0.0,0.0,66,0.00,CLR,,0.00,WeatherDisplay:10.37,2013-01-03 00:56:00,
2013-01-02 19:01:00,42.6,32.4,30.26,North,360,0.0,0.0,67,0.00,CLR,,0.00,WeatherDisplay:10.37,2013-01-03 01:01:00,
2013-01-02 19:06:00,42.5,32.3,30.27,North,360,0.0,0.0,67,0.00,CLR,,0.00,WeatherDisplay:10.37,2013-01-03 01:06:00,
2013-01-02 19:11:00,42.4,32.2,30.27,North,5,0.0,0.0,67,0.00,CLR,,0.00,WeatherDisplay:10.37,2013-01-03 01:11:00,
2013-01-02 19:16:00,42.4,32.6,30.27,North,5,0.0,0.0,68,0.00,CLR,,0.00,WeatherDisplay:10.37,2013-01-03 01:16:00,
2013-01-02 19:21:00,42.3,32.5,30.27,North,5,0.0,0.0,68,0.00,CLR,,0.00,WeatherDisplay:10.37,2013-01-03 01:21:00,
2013-01-02 19:26:00,42.3,32.8,30.27,North,5,0.0,0.0,69,0.00,CLR,,0.00,WeatherDisplay:10.37,2013-01-03 01:26:00,
2013-01-02 19:31:00,42.2,32.8,30.27,North,360,0.0,0.0,69,0.00,CLR,,0.00,WeatherDisplay:10.37,2013-01-03 01:31:00,
2013-01-02 19:36:00,42.1,32.7,30.27,North,360,0.0,0.0,69,0.00,CLR,,0.00,WeatherDisplay:10.37,2013-01-03 01:36:00,
2013-01-02 19:41:00,42.0,32.6,30.27,North,5,0.0,0.0,69,0.00,CLR,,0.00,WeatherDisplay:10.37,2013-01-03 01:41:00,
2013-01-02 19:46:00,41.9,32.5,30.27,North,360,0.0,0.0,69,0.00,CLR,,0.00,WeatherDisplay:10.37,2013-01-03 01:46:00,
2013-01-02 19:51:00,41.9,32.5,30.27,North,5,0.0,0.0,69,0.00,CLR,,0.00,WeatherDisplay:10.37,2013-01-03 01:51:00,
2013-01-02 19:56:00,41.9,32.5,30.28,North,5,0.0,0.0,69,0.00,CLR,,0.00,WeatherDisplay:10.37,2013-01-03 01:56:00,
2013-01-02 20:01:00,41.8,32.4,30.27,North,5,0.0,0.0,69,0.00,CLR,,0.00,WeatherDisplay:10.37,2013-01-03 02:01:00,
2013-01-02 20:06:00,41.7,32.3,30.27,North,360,0.0,0.0,69,0.00,CLR,,0.00,WeatherDisplay:10.37,2013-01-03 02:06:00,
2013-01-02 20:11:00,41.7,32.6,30.27,North,5,0.0,0.0,70,0.00,CLR,,0.00,WeatherDisplay:10.37,2013-01-03 02:11:00,
2013-01-02 20:16:00,41.6,32.5,30.28,North,5,0.0,0.0,70,0.00,CLR,,0.00,WeatherDisplay:10.37,2013-01-03 02:16:00,
2013-01-02 20:21:00,41.6,32.5,30.28,North,5,0.0,0.0,70,0.00,CLR,,0.00,WeatherDisplay:10.37,2013-01-03 02:21:00,
2013-01-02 20:26:00,41.5,32.8,30.28,North,5,0.0,0.0,71,0.00,CLR,,0.00,WeatherDisplay:10.37,2013-01-03 02:26:00,
2013-01-02 20:31:00,41.5,32.8,30.28,North,5,0.0,0.0,71,0.00,CLR,,0.00,WeatherDisplay:10.37,2013-01-03 02:31:00,
2013-01-02 20:36:00,41.4,32.7,30.29,North,5,0.0,0.0,71,0.00,CLR,,0.00,WeatherDisplay:10.37,2013-01-03 02:36:00,
2013-01-02 20:41:00,41.4,32.7,30.29,North,360,0.0,0.0,71,0.00,CLR,,0.00,WeatherDisplay:10.37,2013-01-03 02:41:00,
2013-01-02 20:46:00,41.3,32.6,30.29,North,360,0.0,0.0,71,0.00,CLR,,0.00,WeatherDisplay:10.37,2013-01-03 02:46:00,
2013-01-02 20:51:00,41.2,32.5,30.29,North,5,0.0,0.0,71,0.00,CLR,,0.00,WeatherDisplay:10.37,2013-01-03 02:51:00,
2013-01-02 20:56:00,41.1,32.4,30.29,North,5,0.0,0.0,71,0.00,CLR,,0.00,WeatherDisplay:10.37,2013-01-03 02:56:00,
2013-01-02 21:01:00,41.0,32.3,30.29,North,5,0.0,0.0,71,0.00,CLR,,0.00,WeatherDisplay:10.37,2013-01-03 03:01:00,
2013-01-02 21:06:00,41.0,32.3,30.29,North,5,0.0,0.0,71,0.00,CLR,,0.00,WeatherDisplay:10.37,2013-01-03 03:06:00,
2013-01-02 21:11:00,40.9,32.2,30.30,North,360,0.0,0.0,71,0.00,CLR,,0.00,WeatherDisplay:10.37,2013-01-03 03:11:00,
2013-01-02 21:16:00,40.8,32.1,30.30,North,5,0.0,0.0,71,0.00,CLR,,0.00,WeatherDisplay:10.37,2013-01-03 03:16:00,
2013-01-02 21:21:00,40.8,32.1,30.30,North,360,0.0,0.0,71,0.00,CLR,,0.00,WeatherDisplay:10.37,2013-01-03 03:21:00,
2013-01-02 21:26:00,40.7,32.4,30.30,North,5,0.0,0.0,72,0.00,CLR,,0.00,WeatherDisplay:10.37,2013-01-03 03:26:00,
2013-01-02 21:31:00,40.6,32.6,30.30,North,5,0.0,0.0,73,0.00,CLR,,0.00,WeatherDisplay:10.37,2013-01-03 03:31:00,
2013-01-02 21:36:00,40.5,32.5,30.30,North,5,0.0,0.0,73,0.00,CLR,,0.00,WeatherDisplay:10.37,2013-01-03 03:36:00,
2013-01-02 21:42:00,40.3,32.3,30.30,North,5,0.0,0.0,73,0.00,CLR,,0.00,WeatherDisplay:10.37,2013-01-03 03:42:00,
2013-01-02 21:47:00,40.2,32.2,30.30,North,360,0.0,0.0,73,0.00,CLR,,0.00,WeatherDisplay:10.37,2013-01-03 03:47:00,
2013-01-02 21:52:00,40.0,32.4,30.30,North,5,0.0,0.0,74,0.00,CLR,,0.00,WeatherDisplay:10.37,2013-01-03 03:52:00,
2013-01-02 21:57:00,39.8,32.2,30.31,North,5,0.0,0.0,74,0.00,CLR,,0.00,WeatherDisplay:10.37,2013-01-03 03:57:00,
2013-01-02 22:01:00,39.6,32.0,30.31,North,360,0.0,0.0,74,0.00,CLR,,0.00,WeatherDisplay:10.37,2013-01-03 04:01:00,
2013-01-02 22:06:00,39.5,32.2,30.31,North,5,0.0,0.0,75,0.00,CLR,,0.00,WeatherDisplay:10.37,2013-01-03 04:06:00,
2013-01-02 22:11:00,39.3,32.0,30.31,North,5,0.0,0.0,75,0.00,CLR,,0.00,WeatherDisplay:10.37,2013-01-03 04:11:00,
2013-01-02 22:16:00,39.2,31.9,30.31,North,360,0.0,0.0,75,0.00,CLR,,0.00,WeatherDisplay:10.37,2013-01-03 04:16:00,
2013-01-02 22:21:00,39.0,31.7,30.31,North,360,0.0,0.0,75,0.00,CLR,,0.00,WeatherDisplay:10.37,2013-01-03 04:21:00,
2013-01-02 22:26:00,38.9,32.0,30.31,North,5,0.0,0.0,76,0.00,CLR,,0.00,WeatherDisplay:10.37,2013-01-03 04:26:00,
2013-01-02 22:31:00,38.7,31.8,30.31,North,5,0.0,0.0,76,0.00,CLR,,0.00,WeatherDisplay:10.37,2013-01-03 04:31:00,
2013-01-02 22:36:00,38.4,31.8,30.31,North,5,0.0,0.0,77,0.00,CLR,,0.00,WeatherDisplay:10.37,2013-01-03 04:36:00,
2013-01-02 22:41:00,38.2,31.6,30.31,North,5,0.0,0.0,77,0.00,CLR,,0.00,WeatherDisplay:10.37,2013-01-03 04:41:00,
2013-01-02 22:46:00,38.0,31.7,30.31,North,360,0.0,0.0,78,0.00,CLR,,0.00,WeatherDisplay:10.37,2013-01-03 04:46:00,
2013-01-02 22:51:00,37.8,31.6,30.31,North,360,0.0,0.0,78,0.00,CLR,,0.00,WeatherDisplay:10.37,2013-01-03 04:51:00,
2013-01-02 22:56:00,37.6,31.7,30.31,North,5,0.0,0.0,79,0.00,CLR,,0.00,WeatherDisplay:10.37,2013-01-03 04:56:00,
2013-01-02 23:00:00,37.4,31.5,30.31,North,5,0.0,0.0,79,0.00,CLR,,0.00,WeatherDisplay:10.37,2013-01-03 05:00:00,
2013-01-02 23:02:00,37.3,31.4,30.31,North,5,0.0,0.0,79,0.00,CLR,,0.00,WeatherDisplay:10.37,2013-01-03 05:02:00,
2013-01-02 23:03:00,37.3,31.4,30.31,North,5,0.0,0.0,79,0.00,CLR,,0.00,WeatherDisplay:10.37,2013-01-03 05:03:00,
2013-01-02 23:08:00,37.1,31.2,30.31,North,5,0.0,0.0,79,0.00,CLR,,0.00,WeatherDisplay:10.37,2013-01-03 05:08:00,
2013-01-02 23:13:00,36.8,31.2,30.31,North,5,0.0,0.0,80,0.00,CLR,,0.00,WeatherDisplay:10.37,2013-01-03 05:13:00,
2013-01-02 23:18:00,36.6,31.0,30.31,North,360,0.0,0.0,80,0.00,CLR,,0.00,WeatherDisplay:10.37,2013-01-03 05:18:00,
2013-01-02 23:23:00,36.3,30.7,30.31,North,360,0.0,0.0,80,0.00,CLR,,0.00,WeatherDisplay:10.37,2013-01-03 05:23:00,
2013-01-02 23:28:00,36.1,30.8,30.31,North,5,0.0,0.0,81,0.00,CLR,,0.00,WeatherDisplay:10.37,2013-01-03 05:28:00,
2013-01-02 23:33:00,35.9,30.6,30.31,North,5,0.0,0.0,81,0.00,CLR,,0.00,WeatherDisplay:10.37,2013-01-03 05:33:00,
2013-01-02 23:38:00,35.7,30.7,30.31,North,5,0.0,0.0,82,0.00,CLR,,0.00,WeatherDisplay:10.37,2013-01-03 05:38:00,
2013-01-02 23:43:00,35.6,30.6,30.31,North,5,0.0,0.0,82,0.00,CLR,,0.00,WeatherDisplay:10.37,2013-01-03 05:43:00,
2013-01-02 23:48:00,35.4,30.5,30.31,North,360,0.0,0.0,82,0.00,CLR,,0.00,WeatherDisplay:10.37,2013-01-03 05:48:00,
2013-01-02 23:53:00,35.2,30.6,30.31,North,5,0.0,0.0,83,0.00,CLR,,0.00,WeatherDisplay:10.37,2013-01-03 05:53:00,
2013-01-02 23:58:00,35.1,30.5,30.31,North,5,0.0,0.0,83,0.00,CLR,,0.00,WeatherDisplay:10.37,2013-01-03 05:58:00,